Dothan Regional Airport
KDHN : rendu visible

Aérodrome :











RETROUVEZ-NOUS SUR...

 
LOGIN :

S'inscrire | Disclaimer

   EN    FR    IT 

 









Légende :    VFR   VFR Marginal   IFR   IFR Intensif   IFR Très Intensif
Visi : 
Plafond : 
>= 8 km
>= 3000ft
5 à 8 km
1000 à 3000 ft
1500m à 5 km
500 à 1000 ft
800 à 1500m
200 à 500 ft
< 800m
< 200 ft
Symboles :   Orages  Brouillard  Fortes neiges  Fortes précipitations  Vent > 20 kt






- Altitude de l'aérodrome : 401 ft
- Code IATA : DHN


KDHN - Dothan Regional

DERNIER METAR :
  • 290553Z AUTO 20011KT 7SM OVC005 22/21 A3005 RMK AO2 SLP172 T02220206 10267 20217 58006

METARs EXPIRÉS :
  • 290501Z AUTO 19008KT 8SM BKN007 BKN019 22/20 A3006 RMK AO2 T02170200
  • 290453Z AUTO 19007KT 9SM SCT008 SCT019 22/20 A3006 RMK AO2 SLP175 T02170200 403220206
  • 290353Z AUTO 20008KT 10SM CLR 22/19 A3007 RMK AO2 SLP178 T02220194

TAF KDHN
Valide du 29 à 06h jusqu'au 30 à 06h UTC


290538Z 2906/3006 20007KT P6SM BKN007 OVC014
FM291400 24008KT P6SM BKN015
FM291700 24009KT P6SM BKN060



MET'MAP, la Météo Aéronautique d'un coup d'oeil ! - Copyright ORBIFLY Décembre 2007 - Disclaimer

ORBIFLY MET'MAP TEAM :

Programmation & Développement : Alexandra Zaïnal
Sur une idée originale de : Baudouin d'Aumeries
Assistance à la programmation : Marc-Olivier Méhu
Soutien technique & logistique : Manuel Goepfert

Contact : metmap@orbifly.com




SOURCES & CREDITS :

   NOAA       Earth
Advisory